Time;durP1;ratioP1;P1;durP2;ratioP2;P2;SDS_P1;SDS_P2;PMS_P1;PMS_P2;Temp;Humidity;BMP_temperature;BMP_pressure;BME280_temperature;BME280_humidity;BME280_pressure;Samples;Min_cycle;Max_cycle;Signal;HPM_P1;HPM_P2
2021/05/05 00:04:19;;;;;;;0.30;0.20;;;;;;;;;;5052281;28;20412;-75
2021/05/05 00:06:45;;;;;;;0.40;0.30;;;;;;;;;;5052101;28;20395;-72
2021/05/05 00:09:11;;;;;;;0.40;0.40;;;;;;;;;;5052174;28;20624;-76
2021/05/05 00:11:37;;;;;;;0.93;0.30;;;;;;;;;;5034409;28;20415;-75
2021/05/05 00:14:04;;;;;;;0.40;0.30;;;;;;;;;;5052350;28;20963;-74
2021/05/05 00:19:33;;;;;;;0.50;0.30;;;;;;;;;;5052051;28;20480;-78
2021/05/05 00:21:59;;;;;;;1.47;0.27;;;;;;;;;;5052211;28;20411;-75
2021/05/05 00:24:25;;;;;;;0.40;0.20;;;;;;;;;;5051916;28;20849;-70
2021/05/05 00:26:51;;;;;;;1.10;0.33;;;;;;;;;;5054158;28;20426;-74
2021/05/05 00:29:17;;;;;;;0.90;0.47;;;;;;;;;;5056005;28;20490;-72
2021/05/05 00:34:47;;;;;;;2.87;0.57;;;;;;;;;;5055803;28;20465;-74
2021/05/05 00:37:13;;;;;;;1.50;0.33;;;;;;;;;;5055465;28;20939;-70
2021/05/05 00:39:39;;;;;;;0.70;0.50;;;;;;;;;;5055612;28;20482;-76
2021/05/05 00:42:05;;;;;;;3.00;0.50;;;;;;;;;;5055665;28;20853;-75
2021/05/05 00:44:32;;;;;;;1.50;0.30;;;;;;;;;;5037309;28;20970;-73
2021/05/05 00:46:58;;;;;;;0.50;0.50;;;;;;;;;;5055701;28;20411;-70
2021/05/05 00:49:24;;;;;;;1.60;0.60;;;;;;;;;;5055500;28;20460;-72
2021/05/05 00:51:50;;;;;;;0.83;0.50;;;;;;;;;;5055859;28;20419;-74
2021/05/05 00:54:16;;;;;;;0.73;0.40;;;;;;;;;;5055366;28;20962;-72
2021/05/05 00:56:43;;;;;;;1.63;0.60;;;;;;;;;;5055441;28;20449;-71
2021/05/05 00:59:09;;;;;;;0.40;0.30;;;;;;;;;;5055286;28;20406;-70
2021/05/05 01:04:38;;;;;;;1.10;0.30;;;;;;;;;;5055313;28;20477;-75
2021/05/05 01:07:04;;;;;;;0.70;0.50;;;;;;;;;;5055230;28;20885;-71
2021/05/05 01:09:30;;;;;;;2.60;0.90;;;;;;;;;;5055122;28;20826;-77
2021/05/05 01:11:56;;;;;;;1.63;0.70;;;;;;;;;;5055123;28;20824;-76
2021/05/05 01:14:23;;;;;;;0.43;0.43;;;;;;;;;;5055220;28;20454;-73
2021/05/05 01:19:52;;;;;;;1.13;0.60;;;;;;;;;;5054185;28;20427;-74
2021/05/05 01:22:18;;;;;;;0.93;0.40;;;;;;;;;;5054416;28;20423;-75
2021/05/05 01:24:44;;;;;;;1.27;0.40;;;;;;;;;;5054727;28;20477;-73
2021/05/05 01:27:10;;;;;;;1.10;0.67;;;;;;;;;;5054891;28;20419;-78
2021/05/05 01:29:37;;;;;;;1.23;0.53;;;;;;;;;;5036965;28;20814;-74
2021/05/05 01:32:03;;;;;;;1.27;0.30;;;;;;;;;;5054961;28;20759;-75
2021/05/05 01:34:30;;;;;;;3.40;0.47;;;;;;;;;;5054829;28;20414;-75
2021/05/05 01:36:56;;;;;;;0.50;0.50;;;;;;;;;;5053499;28;20506;-75
2021/05/05 01:39:22;;;;;;;2.20;0.50;;;;;;;;;;5053519;28;20473;-74
2021/05/05 01:41:48;;;;;;;2.17;0.63;;;;;;;;;;5054705;28;20868;-70
2021/05/05 01:44:14;;;;;;;1.23;0.60;;;;;;;;;;5054636;28;20750;-77
2021/05/05 01:49:45;;;;;;;1.90;0.70;;;;;;;;;;5054745;28;20527;-77
2021/05/05 01:52:13;;;;;;;2.15;0.65;;;;;;;;;;5056012;28;20794;-78
2021/05/05 01:54:39;;;;;;;0.47;0.47;;;;;;;;;;5055681;28;20180;-78
2021/05/05 01:57:39;;;;;;;0.50;0.30;;;;;;;;;;5055074;28;20415;-74
2021/05/05 02:00:06;;;;;;;1.07;0.57;;;;;;;;;;5043609;28;20451;-79
2021/05/05 02:02:32;;;;;;;1.40;0.43;;;;;;;;;;5054360;28;20415;-74
2021/05/05 02:04:59;;;;;;;0.97;0.50;;;;;;;;;;5054254;28;20776;-77
2021/05/05 02:07:24;;;;;;;0.80;0.50;;;;;;;;;;5054216;28;20496;-75
2021/05/05 02:09:51;;;;;;;1.03;0.50;;;;;;;;;;5053969;28;21155;-77
2021/05/05 02:12:17;;;;;;;2.40;0.60;;;;;;;;;;5054146;28;20428;-78
2021/05/05 02:20:31;;;;;;;0.47;0.45;;;;;;;;;;5054057;28;20409;-73
2021/05/05 02:22:57;;;;;;;0.60;0.53;;;;;;;;;;5053703;28;20631;-74
2021/05/05 02:25:23;;;;;;;0.53;0.53;;;;;;;;;;5054346;28;20415;-74
2021/05/05 02:27:50;;;;;;;1.40;0.63;;;;;;;;;;5053914;28;20889;-78
2021/05/05 02:30:17;;;;;;;0.63;0.40;;;;;;;;;;5053906;28;20481;-75
2021/05/05 02:32:44;;;;;;;0.40;0.30;;;;;;;;;;5053740;28;20172;-73
2021/05/05 02:35:11;;;;;;;0.50;0.40;;;;;;;;;;5053763;28;20178;-77
2021/05/05 02:37:37;;;;;;;0.50;0.47;;;;;;;;;;5053960;28;20191;-74
2021/05/05 02:40:07;;;;;;;1.83;0.40;;;;;;;;;;5053823;28;20478;-76
2021/05/05 02:42:33;;;;;;;1.63;0.60;;;;;;;;;;5055038;28;20168;-73
2021/05/05 02:45:00;;;;;;;0.98;0.57;;;;;;;;;;5054291;28;20182;-76
2021/05/05 02:47:26;;;;;;;1.73;0.70;;;;;;;;;;5053793;28;20170;-72
2021/05/05 02:49:52;;;;;;;0.50;0.40;;;;;;;;;;5052999;28;20253;-76
2021/05/05 02:52:18;;;;;;;0.55;0.40;;;;;;;;;;5053331;28;20255;-76
2021/05/05 02:54:44;;;;;;;0.98;0.45;;;;;;;;;;5053372;28;20242;-74
2021/05/05 02:57:11;;;;;;;1.08;0.50;;;;;;;;;;5035287;28;20198;-77
2021/05/05 02:59:37;;;;;;;0.75;0.50;;;;;;;;;;5053344;28;20179;-79
2021/05/05 03:05:07;;;;;;;0.50;0.40;;;;;;;;;;5053133;28;20459;-74
2021/05/05 03:07:33;;;;;;;1.15;0.75;;;;;;;;;;5052729;28;20517;-79
2021/05/05 03:09:59;;;;;;;2.50;0.83;;;;;;;;;;5053087;28;20303;-78
2021/05/05 03:12:25;;;;;;;0.77;0.70;;;;;;;;;;5052835;28;20404;-78
2021/05/05 03:14:51;;;;;;;0.93;0.50;;;;;;;;;;5052941;28;20178;-74
2021/05/05 03:20:21;;;;;;;0.82;0.77;;;;;;;;;;5053036;28;20831;-73
2021/05/05 03:22:47;;;;;;;3.15;0.80;;;;;;;;;;5051554;28;20549;-77
2021/05/05 03:25:13;;;;;;;1.53;0.60;;;;;;;;;;5052194;28;20223;-77
2021/05/05 03:27:39;;;;;;;1.58;0.60;;;;;;;;;;5052820;28;20411;-76
2021/05/05 03:30:06;;;;;;;0.50;0.50;;;;;;;;;;5034723;28;20223;-78
2021/05/05 03:32:32;;;;;;;1.15;0.50;;;;;;;;;;5052500;28;20446;-77
2021/05/05 03:34:58;;;;;;;0.85;0.50;;;;;;;;;;5052953;28;20481;-78
2021/05/05 03:37:24;;;;;;;0.83;0.50;;;;;;;;;;5034512;28;20615;-79
2021/05/05 03:39:50;;;;;;;0.70;0.70;;;;;;;;;;5052232;28;20484;-78
2021/05/05 03:42:16;;;;;;;1.15;0.52;;;;;;;;;;5052724;28;20846;-77
2021/05/05 03:44:43;;;;;;;1.57;0.80;;;;;;;;;;5052516;28;20253;-78
2021/05/05 03:50:12;;;;;;;0.95;0.85;;;;;;;;;;5052472;28;20254;-74
2021/05/05 03:52:39;;;;;;;1.40;0.68;;;;;;;;;;5052139;28;20686;-79
2021/05/05 03:55:05;;;;;;;1.50;0.90;;;;;;;;;;5052590;28;20575;-77
2021/05/05 03:57:31;;;;;;;1.98;0.60;;;;;;;;;;5052722;28;20533;-76
2021/05/05 03:59:57;;;;;;;1.48;0.70;;;;;;;;;;5052634;28;20458;-79
2021/05/05 04:05:27;;;;;;;1.33;0.52;;;;;;;;;;5056778;28;20652;-79
2021/05/05 04:07:53;;;;;;;2.90;1.33;;;;;;;;;;5056191;28;20183;-75
2021/05/05 04:10:19;;;;;;;3.43;0.67;;;;;;;;;;5056334;28;20212;-72
2021/05/05 04:12:45;;;;;;;0.70;0.50;;;;;;;;;;5056239;28;20851;-78
2021/05/05 04:15:11;;;;;;;2.72;0.88;;;;;;;;;;5056242;28;20449;-79
2021/05/05 04:17:37;;;;;;;2.45;0.60;;;;;;;;;;5056165;28;20234;-72
2021/05/05 04:20:03;;;;;;;2.00;0.77;;;;;;;;;;5056173;28;20622;-79
2021/05/05 04:22:30;;;;;;;2.30;0.50;;;;;;;;;;5056077;28;20729;-75
2021/05/05 04:24:56;;;;;;;4.15;0.40;;;;;;;;;;5056393;28;20176;-78
2021/05/05 04:27:22;;;;;;;1.03;0.60;;;;;;;;;;5056488;28;20179;-78
2021/05/05 04:29:48;;;;;;;0.57;0.55;;;;;;;;;;5056053;28;20989;-80
2021/05/05 04:35:18;;;;;;;0.50;0.40;;;;;;;;;;5055883;28;20465;-76
2021/05/05 04:37:44;;;;;;;1.48;0.50;;;;;;;;;;5055684;28;20176;-75
2021/05/05 04:40:10;;;;;;;0.70;0.70;;;;;;;;;;5055695;28;20589;-76
2021/05/05 04:42:36;;;;;;;0.63;0.55;;;;;;;;;;5055705;28;20422;-78
2021/05/05 04:45:03;;;;;;;1.30;0.60;;;;;;;;;;5055757;28;20264;-77
2021/05/05 04:50:33;;;;;;;4.20;0.60;;;;;;;;;;5055620;28;20218;-79
2021/05/05 04:52:59;;;;;;;0.70;0.50;;;;;;;;;;5055789;28;20180;-76
2021/05/05 04:55:25;;;;;;;0.80;0.50;;;;;;;;;;5055706;28;20414;-77
2021/05/05 04:57:51;;;;;;;0.63;0.60;;;;;;;;;;5055533;28;20413;-73
2021/05/05 05:00:17;;;;;;;0.93;0.50;;;;;;;;;;5055563;28;20175;-76
2021/05/05 05:05:46;;;;;;;0.77;0.60;;;;;;;;;;5055286;28;20436;-77
2021/05/05 05:08:12;;;;;;;2.30;0.77;;;;;;;;;;5055121;28;20167;-79
2021/05/05 05:10:38;;;;;;;1.90;0.50;;;;;;;;;;5055235;28;20468;-78
2021/05/05 05:13:05;;;;;;;3.28;0.65;;;;;;;;;;5054781;28;20568;-79
2021/05/05 05:15:31;;;;;;;0.50;0.50;;;;;;;;;;5055447;28;20202;-75
2021/05/05 05:17:57;;;;;;;1.00;0.50;;;;;;;;;;5055183;28;20185;-74
2021/05/05 05:20:23;;;;;;;1.27;0.30;;;;;;;;;;5055504;28;20771;-78
2021/05/05 05:22:51;;;;;;;0.65;0.60;;;;;;;;;;5055032;28;20418;-75
2021/05/05 05:25:17;;;;;;;0.47;0.35;;;;;;;;;;5054486;28;20510;-72
2021/05/05 05:27:43;;;;;;;1.58;0.60;;;;;;;;;;5054848;28;20175;-76
2021/05/05 05:30:10;;;;;;;0.70;0.50;;;;;;;;;;5055561;28;20211;-73
2021/05/05 05:35:39;;;;;;;0.70;0.50;;;;;;;;;;5055389;28;20171;-77
2021/05/05 05:38:05;;;;;;;0.60;0.60;;;;;;;;;;5055294;28;20262;-77
2021/05/05 05:40:31;;;;;;;0.70;0.70;;;;;;;;;;5054613;28;20667;-78
2021/05/05 05:42:57;;;;;;;0.47;0.47;;;;;;;;;;5053916;28;20472;-71
2021/05/05 05:45:23;;;;;;;1.30;0.60;;;;;;;;;;5053743;28;20168;-70
2021/05/05 05:50:53;;;;;;;1.10;0.50;;;;;;;;;;5052625;28;20470;-70
2021/05/05 05:53:19;;;;;;;1.67;1.30;;;;;;;;;;5053664;28;20172;-70
2021/05/05 05:55:45;;;;;;;3.03;1.00;;;;;;;;;;5053871;28;20425;-73
2021/05/05 05:58:14;;;;;;;1.67;0.85;;;;;;;;;;5053750;28;20422;-71
2021/05/05 06:00:39;;;;;;;0.93;0.80;;;;;;;;;;5053663;28;20172;-74
2021/05/05 06:03:06;;;;;;;0.80;0.80;;;;;;;;;;5054660;28;20619;-76
2021/05/05 06:05:35;;;;;;;2.20;1.30;;;;;;;;;;5054573;28;20465;-73
2021/05/05 06:08:05;;;;;;;1.95;1.00;;;;;;;;;;5054369;28;20180;-76
2021/05/05 06:10:31;;;;;;;1.98;0.80;;;;;;;;;;5054258;28;20212;-73
2021/05/05 06:12:57;;;;;;;1.67;0.70;;;;;;;;;;5054426;28;20178;-71
2021/05/05 06:15:23;;;;;;;0.93;0.85;;;;;;;;;;5054304;28;20411;-78
2021/05/05 06:20:53;;;;;;;3.42;1.05;;;;;;;;;;5054429;28;20175;-75
2021/05/05 06:23:19;;;;;;;2.85;1.30;;;;;;;;;;5053563;28;20163;-75
2021/05/05 06:25:45;;;;;;;2.83;1.10;;;;;;;;;;5054153;28;20182;-73
2021/05/05 06:28:11;;;;;;;4.00;1.52;;;;;;;;;;5054079;28;20510;-75
2021/05/05 06:30:37;;;;;;;2.60;1.50;;;;;;;;;;5053717;28;20211;-76
2021/05/05 06:36:06;;;;;;;2.50;1.10;;;;;;;;;;5053616;28;20422;-78
2021/05/05 06:38:32;;;;;;;1.23;1.13;;;;;;;;;;5053703;28;20425;-73
2021/05/05 06:40:58;;;;;;;1.57;1.03;;;;;;;;;;5053594;28;20502;-71
2021/05/05 06:43:24;;;;;;;2.00;0.90;;;;;;;;;;5053606;28;20836;-70
2021/05/05 06:51:39;;;;;;;1.90;1.17;;;;;;;;;;5053316;28;20191;-76
2021/05/05 06:54:06;;;;;;;4.37;1.20;;;;;;;;;;5052618;28;20465;-77
2021/05/05 06:56:32;;;;;;;2.90;1.10;;;;;;;;;;5052921;28;20419;-73
2021/05/05 06:58:58;;;;;;;1.40;1.10;;;;;;;;;;5052791;28;20403;-78
2021/05/05 07:01:24;;;;;;;1.80;0.97;;;;;;;;;;5053264;28;20820;-73
2021/05/05 07:03:49;;;;;;;1.50;1.10;;;;;;;;;;5053119;28;20415;-72
2021/05/05 07:06:15;;;;;;;9.47;1.50;;;;;;;;;;5052779;28;20874;-76
2021/05/05 07:08:42;;;;;;;2.00;0.70;;;;;;;;;;5049698;28;20411;-75
2021/05/05 07:11:08;;;;;;;2.40;1.00;;;;;;;;;;5035258;28;20438;-72
2021/05/05 07:13:34;;;;;;;1.70;0.90;;;;;;;;;;5053186;28;20415;-76
2021/05/05 07:16:00;;;;;;;2.40;1.30;;;;;;;;;;5034736;28;20454;-73
2021/05/05 07:21:30;;;;;;;1.13;1.03;;;;;;;;;;5052610;28;20956;-72
2021/05/05 07:23:57;;;;;;;4.67;1.50;;;;;;;;;;5052448;28;20403;-75
2021/05/05 07:26:23;;;;;;;3.40;1.30;;;;;;;;;;5034702;28;20428;-72
2021/05/05 07:28:49;;;;;;;2.73;1.53;;;;;;;;;;5049632;28;20492;-73
2021/05/05 07:31:16;;;;;;;4.60;1.30;;;;;;;;;;5052181;28;20424;-71
2021/05/05 07:33:42;;;;;;;6.33;1.40;;;;;;;;;;5052402;28;20422;-75
2021/05/05 07:36:20;;;;;;;6.23;1.10;;;;;;;;;;5052441;28;20424;-72
2021/05/05 07:50:18;;;;;;;4.03;1.23;;;;;;;;;;5051945;28;20473;-73
2021/05/05 07:52:45;;;;;;;2.27;1.00;;;;;;;;;;5051788;28;20438;-74
2021/05/05 07:55:11;;;;;;;1.27;1.00;;;;;;;;;;5052169;28;20723;-71
2021/05/05 07:57:40;;;;;;;2.63;1.03;;;;;;;;;;5051997;28;20473;-73
2021/05/05 08:00:07;;;;;;;5.20;1.30;;;;;;;;;;5051961;28;20415;-73
2021/05/05 08:05:36;;;;;;;5.70;1.40;;;;;;;;;;5051816;28;20464;-71
2021/05/05 08:08:03;;;;;;;2.07;1.60;;;;;;;;;;5051843;28;20447;-72
2021/05/05 08:10:29;;;;;;;4.43;1.30;;;;;;;;;;5051793;28;20466;-76
2021/05/05 08:12:55;;;;;;;5.23;1.53;;;;;;;;;;5052423;28;20747;-75
2021/05/05 08:15:21;;;;;;;6.00;1.43;;;;;;;;;;5052655;28;20419;-76
2021/05/05 08:20:51;;;;;;;3.87;1.37;;;;;;;;;;5050798;28;21033;-79
2021/05/05 08:23:19;;;;;;;2.37;1.37;;;;;;;;;;5051829;28;20447;-80
2021/05/05 08:25:45;;;;;;;3.40;1.60;;;;;;;;;;5051399;28;20423;-79
2021/05/05 08:28:12;;;;;;;2.13;1.00;;;;;;;;;;5050249;28;20413;-75
2021/05/05 08:30:39;;;;;;;3.97;1.27;;;;;;;;;;5050608;28;20471;-86
2021/05/05 08:36:08;;;;;;;22.47;2.30;;;;;;;;;;5051196;28;20953;-79
2021/05/05 08:38:34;;;;;;;3.20;1.30;;;;;;;;;;5050949;28;20563;-77
2021/05/05 08:41:00;;;;;;;3.50;1.27;;;;;;;;;;5050710;28;20471;-74
2021/05/05 08:43:26;;;;;;;1.80;1.10;;;;;;;;;;5050948;28;20814;-75
2021/05/05 08:45:56;;;;;;;3.10;1.47;;;;;;;;;;5033336;28;20454;-76
2021/05/05 08:51:25;;;;;;;3.37;1.40;;;;;;;;;;5054767;28;20489;-77
2021/05/05 08:53:51;;;;;;;1.50;1.30;;;;;;;;;;5054789;28;20420;-74
2021/05/05 08:56:17;;;;;;;2.50;1.67;;;;;;;;;;5054945;28;20447;-79
2021/05/05 08:58:43;;;;;;;2.00;1.37;;;;;;;;;;5036988;28;20427;-79
2021/05/05 09:01:09;;;;;;;1.43;1.07;;;;;;;;;;5054364;28;20420;-79
2021/05/05 09:06:46;;;;;;;3.07;1.20;;;;;;;;;;5053858;28;20420;-77
2021/05/05 09:09:13;;;;;;;3.50;1.10;;;;;;;;;;5053623;28;20470;-73
2021/05/05 09:11:45;;;;;;;2.43;1.17;;;;;;;;;;5054189;28;20893;-75
2021/05/05 09:14:11;;;;;;;1.50;0.97;;;;;;;;;;5053923;28;20415;-74
2021/05/05 09:16:38;;;;;;;1.33;1.20;;;;;;;;;;5053632;28;20427;-72
2021/05/05 09:22:07;;;;;;;1.00;0.80;;;;;;;;;;5053704;28;20414;-73
2021/05/05 09:24:36;;;;;;;1.33;1.20;;;;;;;;;;5053594;28;20509;-74
2021/05/05 09:27:07;;;;;;;2.70;1.00;;;;;;;;;;5035791;28;20426;-72
2021/05/05 09:29:55;;;;;;;10.87;4.10;;;;;;;;;;5053907;28;20900;-75
2021/05/05 09:32:21;;;;;;;3.63;1.37;;;;;;;;;;5053702;28;20402;-72
2021/05/05 09:34:56;;;;;;;3.37;1.57;;;;;;;;;;5053589;28;20412;-72
2021/05/05 09:37:24;;;;;;;1.67;1.27;;;;;;;;;;5053641;28;20733;-72
2021/05/05 09:39:57;;;;;;;3.60;2.00;;;;;;;;;;5053194;28;20468;-72
2021/05/05 09:42:23;;;;;;;2.87;1.17;;;;;;;;;;5053592;28;20402;-74
2021/05/05 09:44:56;;;;;;;2.50;1.27;;;;;;;;;;5053163;28;20403;-72
2021/05/05 09:47:22;;;;;;;6.63;1.57;;;;;;;;;;5035580;28;20476;-73
2021/05/05 09:49:48;;;;;;;2.07;0.80;;;;;;;;;;5035287;28;20498;-75
2021/05/05 09:52:22;;;;;;;1.53;0.90;;;;;;;;;;5053193;28;20481;-74
2021/05/05 09:55:02;;;;;;;2.90;1.00;;;;;;;;;;5035611;28;20425;-79
2021/05/05 09:57:32;;;;;;;1.33;0.90;;;;;;;;;;5053533;28;20553;-80
2021/05/05 10:00:04;;;;;;;5.30;1.10;;;;;;;;;;5051731;28;20409;-77
2021/05/05 10:02:31;;;;;;;1.90;0.97;;;;;;;;;;5053529;28;20462;-80
2021/05/05 10:05:10;;;;;;;5.57;1.60;;;;;;;;;;5053117;28;20499;-78
2021/05/05 10:07:48;;;;;;;3.67;2.70;;;;;;;;;;5052868;28;20913;-81
2021/05/05 10:10:14;;;;;;;1.23;0.80;;;;;;;;;;5053321;28;20484;-82
2021/05/05 10:12:40;;;;;;;2.37;1.40;;;;;;;;;;5034916;28;20890;-82
2021/05/05 10:15:07;;;;;;;3.70;1.47;;;;;;;;;;5052983;28;20444;-79
2021/05/05 10:17:34;;;;;;;2.30;1.10;;;;;;;;;;5052598;28;20439;-72
2021/05/05 10:20:02;;;;;;;3.70;0.80;;;;;;;;;;5047424;28;20861;-72
2021/05/05 10:25:29;;;;;;;1.90;1.10;;;;;;;;;;4996255;23;20502;-79
2021/05/05 10:27:57;;;;;;;2.80;1.10;;;;;;;;;;4982396;28;20444;-79
2021/05/05 10:30:25;;;;;;;1.80;1.30;;;;;;;;;;4986270;28;20473;-79
2021/05/05 10:32:52;;;;;;;1.70;1.10;;;;;;;;;;4985953;28;20440;-78
2021/05/05 10:35:19;;;;;;;1.70;0.77;;;;;;;;;;4969116;28;20451;-72
2021/05/05 10:37:49;;;;;;;3.13;1.10;;;;;;;;;;4986538;28;20467;-73
2021/05/05 10:40:15;;;;;;;4.10;1.40;;;;;;;;;;4986935;28;20464;-74
2021/05/05 10:42:48;;;;;;;1.20;0.90;;;;;;;;;;4985490;28;20444;-74
2021/05/05 10:45:26;;;;;;;1.87;1.10;;;;;;;;;;4989622;28;20899;-80
2021/05/05 10:48:04;;;;;;;5.10;1.37;;;;;;;;;;4991499;28;20523;-78
2021/05/05 10:50:30;;;;;;;4.07;1.00;;;;;;;;;;4990753;28;20497;-72
2021/05/05 10:52:57;;;;;;;2.70;1.20;;;;;;;;;;4989040;28;20528;-74
2021/05/05 10:55:35;;;;;;;4.00;1.20;;;;;;;;;;4987972;28;20480;-77
2021/05/05 10:58:15;;;;;;;2.33;1.00;;;;;;;;;;4989504;28;20481;-75
2021/05/05 11:00:48;;;;;;;2.67;1.13;;;;;;;;;;4985736;28;20464;-76
2021/05/05 11:03:15;;;;;;;1.37;0.83;;;;;;;;;;4990661;28;20541;-73
2021/05/05 11:05:42;;;;;;;3.10;0.63;;;;;;;;;;4992833;28;20753;-75
2021/05/05 11:11:32;;;;;;;0.97;0.60;;;;;;;;;;4992105;28;20584;-74
2021/05/05 11:13:58;;;;;;;0.50;0.40;;;;;;;;;;4992192;28;20426;-81
2021/05/05 11:16:24;;;;;;;0.50;0.50;;;;;;;;;;4991946;28;20926;-76
2021/05/05 11:18:50;;;;;;;0.70;0.40;;;;;;;;;;4992497;28;20493;-78
2021/05/05 11:21:19;;;;;;;1.67;0.60;;;;;;;;;;4991162;28;20543;-76
2021/05/05 11:26:49;;;;;;;0.50;0.50;;;;;;;;;;4992226;28;20185;-79
2021/05/05 11:29:28;;;;;;;1.77;0.45;;;;;;;;;;4991946;28;20569;-78
2021/05/05 11:31:54;;;;;;;0.60;0.60;;;;;;;;;;4992034;28;20213;-76
2021/05/05 11:34:23;;;;;;;1.00;0.73;;;;;;;;;;4991796;28;20179;-78
2021/05/05 11:36:58;;;;;;;0.60;0.60;;;;;;;;;;4992047;28;20177;-79
2021/05/05 11:42:36;;;;;;;1.13;0.80;;;;;;;;;;4991908;28;20181;-73
2021/05/05 11:45:20;;;;;;;2.40;0.70;;;;;;;;;;4991846;28;20172;-79
2021/05/05 11:47:46;;;;;;;0.60;0.60;;;;;;;;;;4991774;28;20496;-74
2021/05/05 11:50:14;;;;;;;1.37;0.83;;;;;;;;;;4990761;28;20495;-77
2021/05/05 11:52:40;;;;;;;1.30;1.00;;;;;;;;;;4990448;28;20413;-74
2021/05/05 11:58:09;;;;;;;0.83;0.57;;;;;;;;;;4990330;28;20423;-73
2021/05/05 12:00:37;;;;;;;1.60;0.63;;;;;;;;;;4990347;28;20414;-72
2021/05/05 12:03:04;;;;;;;10.63;1.10;;;;;;;;;;4993709;28;20477;-79
2021/05/05 12:05:35;;;;;;;1.17;0.80;;;;;;;;;;4973554;28;20436;-76
2021/05/05 12:08:14;;;;;;;2.43;0.93;;;;;;;;;;4992239;28;20425;-73
2021/05/05 12:13:45;;;;;;;1.10;0.87;;;;;;;;;;4991074;28;20571;-75
2021/05/05 12:16:15;;;;;;;1.20;0.70;;;;;;;;;;4990892;28;20867;-71
2021/05/05 12:18:49;;;;;;;1.00;0.80;;;;;;;;;;4989445;28;20506;-80
2021/05/05 12:21:17;;;;;;;3.27;1.00;;;;;;;;;;4990496;28;20893;-74
2021/05/05 12:23:43;;;;;;;1.03;0.80;;;;;;;;;;4994192;28;20975;-75
2021/05/05 12:29:15;;;;;;;0.97;0.87;;;;;;;;;;4994795;28;21194;-80
2021/05/05 12:31:44;;;;;;;2.60;0.90;;;;;;;;;;4995136;28;20431;-74
2021/05/05 12:34:10;;;;;;;0.77;0.50;;;;;;;;;;4994063;28;20941;-77
2021/05/05 12:36:42;;;;;;;13.53;1.63;;;;;;;;;;4994995;28;20428;-74
2021/05/05 12:39:12;;;;;;;4.00;0.83;;;;;;;;;;4994879;28;20934;-73
2021/05/05 12:41:47;;;;;;;1.63;0.90;;;;;;;;;;4994772;28;20421;-77
2021/05/05 12:44:13;;;;;;;2.03;0.80;;;;;;;;;;4994981;28;20902;-76
2021/05/05 12:46:58;;;;;;;1.63;0.80;;;;;;;;;;4994358;28;20443;-81
2021/05/05 12:49:28;;;;;;;1.27;0.70;;;;;;;;;;4994727;28;20478;-77
2021/05/05 12:51:55;;;;;;;0.80;0.43;;;;;;;;;;4994597;28;20444;-81
2021/05/05 12:54:25;;;;;;;1.67;0.63;;;;;;;;;;4994376;28;20423;-78
2021/05/05 12:56:51;;;;;;;0.70;0.70;;;;;;;;;;4992480;28;20437;-74
2021/05/05 12:59:19;;;;;;;1.30;0.83;;;;;;;;;;4993689;28;20415;-77
2021/05/05 13:01:45;;;;;;;2.50;0.60;;;;;;;;;;4976369;28;20784;-79
2021/05/05 13:04:16;;;;;;;1.37;0.60;;;;;;;;;;4993877;28;20456;-78
2021/05/05 13:06:43;;;;;;;0.60;0.60;;;;;;;;;;4993770;28;20416;-82
2021/05/05 13:09:13;;;;;;;0.70;0.70;;;;;;;;;;4993264;28;20428;-80
2021/05/05 13:11:43;;;;;;;4.13;1.17;;;;;;;;;;4993219;28;20459;-79
2021/05/05 13:14:16;;;;;;;1.13;0.70;;;;;;;;;;4993019;28;20907;-80
2021/05/05 13:16:52;;;;;;;2.23;0.87;;;;;;;;;;4993347;28;20424;-80
2021/05/05 13:19:55;;;;;;;1.00;0.93;;;;;;;;;;4993037;28;20426;-80
2021/05/05 13:31:18;;;;;;;2.20;1.10;;;;;;;;;;4994407;28;20527;-77
2021/05/05 13:33:59;;;;;;;1.10;0.83;;;;;;;;;;4993906;28;20413;-80
2021/05/05 13:36:43;;;;;;;1.93;1.83;;;;;;;;;;4993719;28;20431;-78
2021/05/05 13:41:56;;;;;;;0.50;0.40;;;;;;;;;;4993397;28;20427;-78
2021/05/05 13:44:30;;;;;;;0.57;0.50;;;;;;;;;;4994355;28;20509;-81
2021/05/05 13:49:50;;;;;;;0.67;0.60;;;;;;;;;;4971163;28;20965;-80
2021/05/05 13:52:16;;;;;;;1.60;0.60;;;;;;;;;;4996156;28;20428;-78
2021/05/05 13:57:46;;;;;;;0.87;0.70;;;;;;;;;;4998714;28;20476;-78
2021/05/05 14:00:14;;;;;;;1.23;0.87;;;;;;;;;;4998537;28;20503;-77
2021/05/05 14:02:40;;;;;;;1.00;0.70;;;;;;;;;;4999311;28;20428;-78
2021/05/05 14:05:06;;;;;;;1.07;0.90;;;;;;;;;;4996765;28;20416;-79
2021/05/05 14:07:35;;;;;;;1.83;0.80;;;;;;;;;;4977626;28;20427;-79
2021/05/05 14:13:05;;;;;;;1.23;0.57;;;;;;;;;;4992683;28;20423;-73
2021/05/05 14:15:35;;;;;;;3.00;0.93;;;;;;;;;;4992450;28;20428;-79
2021/05/05 14:18:02;;;;;;;0.70;0.60;;;;;;;;;;4993206;28;20424;-79
2021/05/05 14:20:28;;;;;;;3.83;1.00;;;;;;;;;;4993793;28;20424;-79
2021/05/05 14:22:54;;;;;;;1.57;0.77;;;;;;;;;;4995033;28;20412;-78
2021/05/05 14:34:07;;;;;;;0.80;0.57;;;;;;;;;;5326372;23;20506;-73
2021/05/05 14:36:33;;;;;;;1.50;1.10;;;;;;;;;;5021965;28;20478;-80
2021/05/05 14:39:14;;;;;;;0.90;0.50;;;;;;;;;;5028592;28;20616;-81
2021/05/05 14:41:42;;;;;;;1.43;0.53;;;;;;;;;;5029624;28;20442;-82
2021/05/05 14:49:04;;;;;;;0.60;0.57;;;;;;;;;;5029538;28;20459;-81
2021/05/05 14:51:30;;;;;;;2.23;0.90;;;;;;;;;;5029132;28;20431;-82
2021/05/05 14:53:56;;;;;;;2.10;1.00;;;;;;;;;;5030347;28;20440;-80
2021/05/05 14:56:22;;;;;;;1.53;0.80;;;;;;;;;;5027728;28;20450;-80
2021/05/05 14:58:57;;;;;;;1.13;0.73;;;;;;;;;;5030414;28;20933;-81
2021/05/05 15:01:24;;;;;;;1.03;0.73;;;;;;;;;;5029700;28;20573;-80
2021/05/05 15:03:50;;;;;;;0.90;0.80;;;;;;;;;;5029750;28;20513;-79
2021/05/05 15:06:21;;;;;;;1.43;1.00;;;;;;;;;;5030556;28;20428;-75
2021/05/05 15:08:56;;;;;;;0.70;0.60;;;;;;;;;;5011679;28;20442;-78
2021/05/05 15:14:09;;;;;;;0.90;0.80;;;;;;;;;;5030369;28;20430;-80
2021/05/05 15:35:40;;;;;;;0.93;0.50;;;;;;;;;;5029820;28;20833;-82
2021/05/05 15:48:21;;;;;;;0.80;0.80;;;;;;;;;;5028388;28;20528;-81
2021/05/05 15:50:47;;;;;;;2.13;1.00;;;;;;;;;;5030979;28;20834;-82
2021/05/05 15:55:44;;;;;;;1.53;0.53;;;;;;;;;;5031687;28;20445;-80
2021/05/05 15:58:14;;;;;;;1.47;0.87;;;;;;;;;;5030861;28;20434;-78
2021/05/05 16:16:30;;;;;;;1.80;0.93;;;;;;;;;;5036073;28;20472;-83
2021/05/05 16:18:59;;;;;;;1.10;0.83;;;;;;;;;;5035874;28;20450;-77
2021/05/05 16:26:45;;;;;;;1.23;0.80;;;;;;;;;;5027561;28;20481;-74
2021/05/05 16:48:51;;;;;;;0.53;0.50;;;;;;;;;;5004429;28;20444;-78
2021/05/05 16:54:19;;;;;;;1.27;0.90;;;;;;;;;;5028454;28;20462;-77
2021/05/05 16:56:54;;;;;;;1.93;1.30;;;;;;;;;;5027341;28;20423;-75
2021/05/05 17:09:59;;;;;;;3.43;1.17;;;;;;;;;;5031286;28;21048;-77
2021/05/05 17:12:25;;;;;;;2.60;1.50;;;;;;;;;;5030779;28;20434;-77
2021/05/05 17:14:55;;;;;;;1.03;0.90;;;;;;;;;;5032192;28;20764;-72
2021/05/05 17:17:25;;;;;;;1.77;1.27;;;;;;;;;;5034490;28;20801;-76
2021/05/05 17:22:20;;;;;;;2.30;1.83;;;;;;;;;;5034082;28;20468;-73
2021/05/05 17:25:31;;;;;;;1.50;0.87;;;;;;;;;;5034539;28;20432;-72
2021/05/05 17:27:45;;;;;;;2.27;1.60;;;;;;;;;;5026006;28;20443;-79
2021/05/05 18:19:12;;;;;;;2.13;1.00;;;;;;;;;;4980145;28;20429;-82
2021/05/05 18:31:59;;;;;;;2.90;1.00;;;;;;;;;;4987105;28;20483;-77
2021/05/05 18:34:24;;;;;;;1.00;0.90;;;;;;;;;;4987143;28;21041;-80
2021/05/05 18:36:52;;;;;;;2.27;0.70;;;;;;;;;;4987553;28;20449;-77
2021/05/05 18:39:20;;;;;;;1.00;0.80;;;;;;;;;;4988809;28;20540;-83
2021/05/05 18:42:04;;;;;;;1.37;0.57;;;;;;;;;;4973009;28;20438;-80
2021/05/05 19:06:58;;;;;;;2.85;0.82;;;;;;;;;;5027560;28;20188;-83
2021/05/05 19:46:14;;;;;;;1.10;1.00;;;;;;;;;;5027364;28;20191;-85
2021/05/05 20:33:41;;;;;;;3.05;1.35;;;;;;;;;;5025299;28;20189;-79
2021/05/05 21:08:55;;;;;;;1.95;1.77;;;;;;;;;;5066271;28;20273;-81
2021/05/05 21:39:19;;;;;;;1.35;1.00;;;;;;;;;;5042406;28;20201;-80
2021/05/05 23:11:20;;;;;;;3.38;1.75;;;;;;;;;;5028156;28;20257;-81
2021/05/05 23:21:55;;;;;;;1.90;1.50;;;;;;;;;;5030790;28;20260;-81
2021/05/05 23:27:06;;;;;;;3.05;1.67;;;;;;;;;;5033846;28;20180;-80
2021/05/05 23:32:41;;;;;;;1.80;1.70;;;;;;;;;;5033582;28;20187;-82
2021/05/05 23:58:21;;;;;;;1.73;1.63;;;;;;;;;;5039595;28;20174;-82
